createdAt,value
2018-08-03T00:03:40.831Z,22.20
2018-08-03T00:06:09.609Z,22.20
2018-08-03T00:08:38.788Z,22.10
2018-08-03T00:11:08.091Z,22.10
2018-08-03T00:13:37.008Z,22.10
2018-08-03T00:16:05.845Z,22.00
2018-08-03T00:18:34.489Z,22.00
2018-08-03T00:21:03.089Z,22.00
2018-08-03T00:23:31.817Z,22.10
2018-08-03T00:26:00.664Z,22.00
2018-08-03T00:28:29.523Z,22.00
2018-08-03T00:30:58.141Z,22.00
2018-08-03T00:33:26.742Z,22.00
2018-08-03T00:35:55.640Z,22.00
2018-08-03T00:40:52.730Z,21.90
2018-08-03T00:45:49.557Z,21.80
2018-08-03T00:48:18.144Z,21.90
2018-08-03T00:50:47.585Z,21.90
2018-08-03T00:53:17.022Z,21.80
2018-08-03T00:55:46.129Z,21.70
2018-08-03T00:58:15.055Z,21.70
2018-08-03T01:00:44.032Z,21.70
2018-08-03T01:03:12.730Z,21.70
2018-08-03T01:05:41.318Z,21.70
2018-08-03T01:08:09.910Z,21.70
2018-08-03T01:10:38.771Z,21.70
2018-08-03T01:13:08.037Z,21.70
2018-08-03T01:15:37.345Z,21.70
2018-08-03T01:18:06.449Z,21.70
2018-08-03T01:20:35.182Z,21.60
2018-08-03T01:23:03.813Z,21.50
2018-08-03T01:25:32.472Z,21.50
2018-08-03T01:28:01.232Z,21.40
2018-08-03T01:30:29.820Z,21.40
2018-08-03T01:32:58.377Z,21.20
2018-08-03T01:35:26.981Z,21.20
2018-08-03T01:37:55.602Z,21.20
2018-08-03T01:40:25.396Z,21.20
2018-08-03T01:42:54.886Z,21.20
2018-08-03T01:45:24.358Z,21.10
2018-08-03T01:47:53.536Z,21.10
2018-08-03T01:50:22.341Z,21.00
2018-08-03T01:52:51.247Z,21.00
2018-08-03T01:55:20.300Z,20.90
2018-08-03T01:57:49.223Z,20.80
2018-08-03T02:00:17.950Z,20.70
2018-08-03T02:02:46.576Z,20.70
2018-08-03T02:05:15.164Z,20.70
2018-08-03T02:07:43.877Z,20.60
2018-08-03T02:10:13.624Z,20.60
2018-08-03T02:15:11.502Z,20.60
2018-08-03T02:17:40.319Z,20.60
2018-08-03T02:20:09.191Z,20.60
2018-08-03T02:22:37.768Z,20.60
2018-08-03T02:25:07.409Z,20.60
2018-08-03T02:27:35.975Z,20.50
2018-08-03T02:30:05.198Z,20.40
2018-08-03T02:32:34.092Z,20.30
2018-08-03T02:37:31.670Z,20.30
2018-08-03T02:40:00.941Z,20.30
2018-08-03T02:42:29.515Z,20.30
2018-08-03T02:44:58.308Z,20.20
2018-08-03T02:47:27.345Z,20.20
2018-08-03T02:49:56.741Z,20.20
2018-08-03T02:52:25.370Z,20.20
2018-08-03T02:54:53.983Z,20.20
2018-08-03T02:57:22.600Z,20.10
2018-08-03T02:59:51.213Z,20.10
2018-08-03T03:02:21.040Z,20.10
2018-08-03T03:04:50.611Z,20.10
2018-08-03T03:07:20.026Z,20.10
2018-08-03T03:12:18.419Z,20.10
2018-08-03T03:14:47.379Z,20.10
2018-08-03T03:17:16.245Z,20.10
2018-08-03T03:19:45.009Z,20.10
2018-08-03T03:22:13.633Z,20.00
2018-08-03T03:24:42.193Z,20.00
2018-08-03T03:27:10.826Z,19.90
2018-08-03T03:29:39.497Z,19.90
2018-08-03T03:34:37.849Z,19.90
2018-08-03T03:37:07.288Z,19.80
2018-08-03T03:39:35.899Z,19.80
2018-08-03T03:42:04.976Z,19.80
2018-08-03T03:44:33.697Z,19.90
2018-08-03T03:47:02.357Z,19.90
2018-08-03T03:49:30.922Z,19.90
2018-08-03T03:51:59.621Z,19.80
2018-08-03T03:54:28.512Z,19.80
2018-08-03T03:56:58.425Z,19.80
2018-08-03T03:59:27.400Z,19.80
2018-08-03T04:01:56.072Z,19.80
2018-08-03T04:04:25.026Z,19.80
2018-08-03T04:06:54.081Z,19.80
2018-08-03T04:09:23.291Z,19.80
2018-08-03T04:11:51.881Z,19.70
2018-08-03T04:14:20.465Z,19.80
2018-08-03T04:16:55.260Z,19.70
2018-08-03T04:19:23.824Z,19.80
2018-08-03T04:21:52.397Z,19.70
2018-08-03T04:24:20.960Z,19.80
2018-08-03T04:26:49.548Z,19.70
2018-08-03T04:29:18.137Z,19.80
2018-08-03T04:31:46.720Z,19.80
2018-08-03T04:34:15.320Z,19.80
2018-08-03T04:36:44.122Z,19.80
2018-08-03T04:39:12.754Z,19.70
2018-08-03T04:41:41.324Z,19.80
2018-08-03T04:44:12.020Z,19.80
2018-08-03T04:46:40.834Z,19.80
2018-08-03T04:49:09.409Z,19.80
2018-08-03T04:51:38.204Z,19.80
2018-08-03T04:54:06.829Z,19.80
2018-08-03T04:56:35.509Z,19.90
2018-08-03T04:59:04.533Z,19.90
2018-08-03T05:01:33.089Z,19.90
2018-08-03T05:04:01.689Z,20.00
2018-08-03T05:06:30.249Z,20.00
2018-08-03T05:08:59.009Z,20.00
2018-08-03T05:11:27.936Z,20.10
2018-08-03T05:13:56.496Z,20.10
2018-08-03T05:16:25.096Z,20.20
2018-08-03T05:18:53.725Z,20.20
2018-08-03T05:21:22.297Z,20.20
2018-08-03T05:23:50.867Z,20.30
2018-08-03T05:26:19.452Z,20.30
2018-08-03T05:28:48.053Z,20.40
2018-08-03T05:31:16.658Z,20.40
2018-08-03T05:33:45.276Z,20.50
2018-08-03T05:36:13.954Z,20.50
2018-08-03T05:38:42.509Z,20.60
2018-08-03T05:41:11.589Z,20.60
2018-08-03T05:43:40.271Z,20.70
2018-08-03T05:46:08.848Z,20.80
2018-08-03T05:48:37.453Z,20.80
2018-08-03T05:51:06.040Z,20.90
2018-08-03T05:53:34.593Z,20.90
2018-08-03T05:56:03.257Z,21.00
2018-08-03T05:58:31.840Z,21.10
2018-08-03T06:01:00.414Z,21.20
2018-08-03T06:03:29.608Z,21.30
2018-08-03T06:05:58.712Z,21.40
2018-08-03T06:08:27.684Z,21.50
2018-08-03T06:10:56.262Z,21.60
2018-08-03T06:13:24.837Z,21.70
2018-08-03T06:15:53.425Z,21.70
2018-08-03T06:18:22.557Z,21.80
2018-08-03T06:20:51.150Z,21.90
2018-08-03T06:23:19.767Z,21.90
2018-08-03T06:28:16.593Z,22.10
2018-08-03T06:30:45.177Z,22.10
2018-08-03T06:33:13.725Z,22.20
2018-08-03T06:35:42.309Z,22.30
2018-08-03T06:38:10.926Z,22.40
2018-08-03T06:40:39.525Z,22.40
2018-08-03T06:43:08.078Z,22.50
2018-08-03T06:45:36.645Z,22.60
2018-08-03T06:48:05.265Z,22.70
2018-08-03T06:50:33.820Z,22.90
2018-08-03T06:53:02.432Z,23.00
2018-08-03T06:55:31.008Z,23.10
2018-08-03T06:57:59.741Z,23.20
2018-08-03T07:00:28.341Z,23.40
2018-08-03T07:02:57.064Z,23.50
2018-08-03T07:05:25.534Z,23.70
2018-08-03T07:07:54.125Z,23.80
2018-08-03T07:10:22.690Z,23.90
2018-08-03T07:15:19.920Z,24.20
2018-08-03T07:17:48.608Z,24.30
2018-08-03T07:20:17.351Z,24.40
2018-08-03T07:22:45.808Z,24.50
2018-08-03T07:25:14.353Z,24.60
2018-08-03T07:27:42.929Z,24.70
2018-08-03T07:30:11.504Z,24.80
2018-08-03T07:32:40.081Z,25.00
2018-08-03T07:35:08.645Z,25.10
2018-08-03T07:37:37.197Z,25.20
2018-08-03T07:40:05.890Z,25.30
2018-08-03T07:42:34.425Z,25.40
2018-08-03T07:45:03.107Z,25.50
2018-08-03T07:47:31.632Z,25.60
2018-08-03T07:50:00.193Z,25.80
2018-08-03T07:52:28.800Z,25.90
2018-08-03T07:54:57.348Z,25.90
2018-08-03T07:57:25.917Z,26.10
2018-08-03T07:59:54.460Z,26.10
2018-08-03T08:02:23.121Z,26.30
2018-08-03T08:04:51.708Z,26.40
2018-08-03T08:07:20.284Z,26.50
2018-08-03T08:09:48.845Z,26.60
2018-08-03T08:12:17.421Z,26.70
2018-08-03T08:14:46.029Z,26.90
2018-08-03T08:17:14.576Z,27.00
2018-08-03T08:19:43.148Z,27.20
2018-08-03T08:22:11.760Z,27.30
2018-08-03T08:24:40.605Z,27.30
2018-08-03T08:27:09.225Z,27.50
2018-08-03T08:29:37.793Z,27.60
2018-08-03T08:32:06.405Z,27.60
2018-08-03T08:34:34.984Z,27.70
2018-08-03T08:37:03.669Z,27.70
2018-08-03T08:39:32.216Z,28.00
2018-08-03T08:42:00.780Z,28.00
2018-08-03T08:44:29.385Z,28.20
2018-08-03T08:46:57.945Z,28.30
2018-08-03T08:49:26.529Z,28.40
2018-08-03T08:51:55.142Z,28.60
2018-08-03T08:54:23.721Z,28.70
2018-08-03T08:56:52.348Z,28.70
2018-08-03T08:59:20.929Z,28.90
2018-08-03T09:01:49.509Z,29.00
2018-08-03T09:04:18.089Z,29.20
2018-08-03T09:06:46.762Z,29.30
2018-08-03T09:09:15.296Z,29.40
2018-08-03T09:11:43.884Z,29.60
2018-08-03T09:14:12.469Z,29.70
2018-08-03T09:16:41.044Z,29.70
2018-08-03T09:19:09.625Z,29.80
2018-08-03T09:21:38.237Z,29.90
2018-08-03T09:24:06.837Z,30.10
2018-08-03T09:26:35.443Z,30.10
2018-08-03T09:29:04.037Z,30.30
2018-08-03T09:31:32.626Z,30.40
2018-08-03T09:34:01.196Z,30.50
2018-08-03T09:36:29.793Z,30.60
2018-08-03T09:38:58.360Z,30.70
2018-08-03T09:41:26.945Z,30.90
2018-08-03T09:43:55.522Z,31.00
2018-08-03T09:46:24.133Z,31.00
2018-08-03T09:48:52.754Z,31.10
2018-08-03T09:53:49.545Z,31.30
2018-08-03T09:56:18.128Z,31.40
2018-08-03T09:58:46.713Z,31.60
2018-08-03T10:01:15.300Z,31.70
2018-08-03T10:03:43.885Z,31.80
2018-08-03T10:06:13.152Z,31.80
2018-08-03T10:08:41.713Z,32.00
2018-08-03T10:11:10.633Z,32.10
2018-08-03T10:13:39.249Z,32.30
2018-08-03T10:16:08.364Z,32.40
2018-08-03T10:18:36.956Z,32.60
2018-08-03T10:21:05.542Z,32.60
2018-08-03T10:23:34.104Z,32.50
2018-08-03T10:26:02.776Z,32.70
2018-08-03T10:28:31.330Z,32.80
2018-08-03T10:30:59.919Z,32.90
2018-08-03T10:33:28.485Z,33.00
2018-08-03T10:35:57.080Z,33.00
2018-08-03T10:38:25.641Z,33.20
2018-08-03T10:40:54.240Z,33.20
2018-08-03T10:43:22.885Z,33.40
2018-08-03T10:45:51.469Z,33.50
2018-08-03T10:48:20.082Z,33.70
2018-08-03T10:53:17.307Z,34.00
2018-08-03T10:55:45.916Z,34.20
2018-08-03T10:58:14.505Z,34.30
2018-08-03T11:00:43.158Z,34.40
2018-08-03T11:03:11.728Z,34.50
2018-08-03T11:05:40.334Z,34.40
2018-08-03T11:08:08.905Z,34.50
2018-08-03T11:10:37.509Z,34.50
2018-08-03T11:13:06.181Z,34.60
2018-08-03T11:15:34.757Z,34.70
2018-08-03T11:18:03.314Z,34.90
2018-08-03T11:20:31.893Z,35.00
2018-08-03T11:23:00.496Z,35.20
2018-08-03T11:25:29.125Z,35.30
2018-08-03T11:27:57.714Z,35.50
2018-08-03T11:30:26.287Z,35.60
2018-08-03T11:32:54.878Z,35.60
2018-08-03T11:35:23.517Z,35.80
2018-08-03T11:37:52.089Z,35.90
2018-08-03T11:40:21.389Z,36.10
2018-08-03T11:42:49.982Z,36.10
2018-08-03T11:45:18.549Z,36.40
2018-08-03T11:47:47.170Z,36.40
2018-08-03T11:50:15.742Z,36.40
2018-08-03T11:52:44.301Z,36.40
2018-08-03T11:55:15.746Z,36.60
2018-08-03T11:57:44.338Z,36.80
2018-08-03T12:00:13.204Z,36.90
2018-08-03T12:02:41.765Z,37.10
2018-08-03T12:05:10.425Z,37.30
2018-08-03T12:07:39.008Z,37.50
2018-08-03T12:10:07.633Z,37.60
2018-08-03T12:12:36.255Z,37.50
2018-08-03T12:15:04.911Z,37.70
2018-08-03T12:17:33.514Z,37.70
2018-08-03T12:20:02.085Z,37.80
2018-08-03T12:22:30.677Z,37.90
2018-08-03T12:24:59.227Z,37.80
2018-08-03T12:27:27.817Z,38.00
2018-08-03T12:29:56.452Z,38.10
2018-08-03T12:32:25.256Z,38.20
2018-08-03T12:34:53.840Z,38.30
2018-08-03T12:37:22.405Z,38.30
2018-08-03T12:39:51.002Z,38.50
2018-08-03T12:42:19.570Z,38.80
2018-08-03T12:44:48.180Z,38.70
2018-08-03T12:47:17.853Z,38.60
2018-08-03T12:49:46.433Z,38.50
2018-08-03T12:52:15.070Z,38.50
2018-08-03T12:54:43.631Z,38.60
2018-08-03T12:57:12.257Z,38.80
2018-08-03T12:59:40.938Z,38.90
2018-08-03T13:02:09.446Z,39.00
2018-08-03T13:04:38.014Z,39.00
2018-08-03T13:07:06.838Z,39.20
2018-08-03T13:09:35.413Z,39.60
2018-08-03T13:12:04.050Z,39.60
2018-08-03T13:14:32.609Z,39.80
2018-08-03T13:17:01.166Z,39.90
2018-08-03T13:19:32.169Z,40.00
2018-08-03T13:22:00.829Z,40.10
2018-08-03T13:24:29.480Z,40.10
2018-08-03T13:26:58.050Z,40.10
2018-08-03T13:29:26.743Z,40.00
2018-08-03T13:31:55.245Z,39.90
2018-08-03T13:34:23.819Z,39.90
2018-08-03T13:36:52.402Z,39.80
2018-08-03T13:39:21.017Z,39.90
2018-08-03T13:41:49.713Z,39.90
2018-08-03T13:46:46.538Z,40.00
2018-08-03T13:49:15.145Z,39.80
2018-08-03T13:51:43.751Z,40.10
2018-08-03T13:54:12.352Z,40.10
2018-08-03T13:56:40.958Z,40.40
2018-08-03T13:59:09.509Z,40.40
2018-08-03T14:01:50.013Z,40.50
2018-08-03T14:04:18.611Z,40.50
2018-08-03T14:06:47.200Z,40.50
2018-08-03T14:09:15.804Z,40.60
2018-08-03T14:11:44.365Z,40.50
2018-08-03T14:14:12.954Z,40.60
2018-08-03T14:16:41.545Z,40.90
2018-08-03T14:19:10.140Z,40.80
2018-08-03T14:21:38.697Z,40.70
2018-08-03T14:24:07.292Z,40.20
2018-08-03T14:26:35.917Z,39.70
2018-08-03T14:29:04.573Z,39.70
2018-08-03T14:31:33.268Z,39.60
2018-08-03T14:34:01.807Z,39.40
2018-08-03T14:38:58.634Z,39.40
2018-08-03T14:41:27.208Z,39.20
2018-08-03T14:43:55.780Z,39.40
2018-08-03T14:46:24.341Z,39.40
2018-08-03T14:48:52.957Z,39.50
2018-08-03T14:51:21.534Z,39.80
2018-08-03T14:53:50.125Z,39.80
2018-08-03T14:56:18.701Z,39.80
2018-08-03T14:58:47.268Z,39.90
2018-08-03T15:01:15.865Z,39.80
2018-08-03T15:03:44.472Z,39.70
2018-08-03T15:06:13.040Z,39.50
2018-08-03T15:08:41.593Z,39.60
2018-08-03T15:11:10.220Z,39.60
2018-08-03T15:13:38.842Z,39.70
2018-08-03T15:16:07.800Z,39.50
2018-08-03T15:18:36.372Z,39.60
2018-08-03T15:21:05.062Z,39.60
2018-08-03T15:23:33.676Z,39.60
2018-08-03T15:26:02.238Z,39.30
2018-08-03T15:28:31.895Z,39.50
2018-08-03T15:31:00.456Z,39.60
2018-08-03T15:33:29.037Z,39.40
2018-08-03T15:35:57.619Z,39.20
2018-08-03T15:38:26.213Z,39.20
2018-08-03T15:40:54.832Z,39.20
2018-08-03T15:43:23.401Z,39.00
2018-08-03T15:45:51.958Z,38.90
2018-08-03T15:48:20.532Z,38.70
2018-08-03T15:50:49.120Z,38.70
2018-08-03T15:53:18.423Z,38.80
2018-08-03T15:55:47.049Z,38.50
2018-08-03T15:58:15.622Z,38.60
2018-08-03T16:03:12.397Z,38.20
2018-08-03T16:08:09.176Z,38.20
2018-08-03T16:10:37.745Z,38.00
2018-08-03T16:13:06.788Z,37.90
2018-08-03T16:15:35.382Z,37.70
2018-08-03T16:18:03.986Z,37.60
2018-08-03T16:20:32.588Z,37.40
2018-08-03T16:23:01.136Z,37.20
2018-08-03T16:25:29.753Z,37.20
2018-08-03T16:27:58.357Z,37.10
2018-08-03T16:30:26.933Z,36.90
2018-08-03T16:32:55.517Z,36.70
2018-08-03T16:35:24.115Z,36.50
2018-08-03T16:37:52.699Z,36.50
2018-08-03T16:40:21.925Z,36.30
2018-08-03T16:42:50.524Z,36.30
2018-08-03T16:45:19.121Z,36.10
2018-08-03T16:47:47.760Z,36.00
2018-08-03T16:50:17.253Z,36.00
2018-08-03T16:52:45.925Z,35.80
2018-08-03T16:55:14.545Z,35.80
2018-08-03T16:57:43.116Z,35.60
2018-08-03T17:00:11.772Z,35.50
2018-08-03T17:02:40.341Z,35.40
2018-08-03T17:05:08.924Z,35.30
2018-08-03T17:07:38.476Z,35.20
2018-08-03T17:10:07.092Z,35.10
2018-08-03T17:12:35.677Z,35.00
2018-08-03T17:15:04.489Z,34.90
2018-08-03T17:17:33.097Z,34.70
2018-08-03T17:20:01.657Z,34.50
2018-08-03T17:22:30.233Z,34.30
2018-08-03T17:24:58.797Z,34.10
2018-08-03T17:27:27.380Z,34.00
2018-08-03T17:29:55.948Z,33.90
2018-08-03T17:32:25.277Z,33.70
2018-08-03T17:34:53.849Z,33.60
2018-08-03T17:37:22.425Z,33.40
2018-08-03T17:39:51.004Z,33.20
2018-08-03T17:42:19.576Z,33.10
2018-08-03T17:44:48.149Z,33.00
2018-08-03T17:47:16.757Z,32.90
2018-08-03T17:49:45.338Z,32.70
2018-08-03T17:52:13.957Z,32.60
2018-08-03T17:54:42.551Z,32.50
2018-08-03T17:57:11.157Z,32.50
2018-08-03T17:59:39.725Z,32.40
2018-08-03T18:02:08.508Z,32.20
2018-08-03T18:04:37.186Z,32.10
2018-08-03T18:07:05.796Z,32.00
2018-08-03T18:09:34.395Z,32.00
2018-08-03T18:12:02.933Z,31.90
2018-08-03T18:14:31.521Z,31.70
2018-08-03T18:17:00.077Z,31.70
2018-08-03T18:21:56.909Z,31.50
2018-08-03T18:24:25.492Z,31.40
2018-08-03T18:26:54.054Z,31.30
2018-08-03T18:29:23.175Z,31.20
2018-08-03T18:31:51.624Z,31.10
2018-08-03T18:34:20.193Z,31.00
2018-08-03T18:36:48.748Z,31.00
2018-08-03T18:39:17.313Z,31.00
2018-08-03T18:41:45.889Z,30.80
2018-08-03T18:44:14.461Z,30.80
2018-08-03T18:46:43.008Z,30.70
2018-08-03T18:49:11.638Z,30.70
2018-08-03T18:51:40.549Z,30.60
2018-08-03T18:54:09.160Z,30.50
2018-08-03T18:56:37.787Z,30.40
2018-08-03T18:59:06.625Z,30.40
2018-08-03T19:01:35.216Z,30.30
2018-08-03T19:04:03.853Z,30.20
2018-08-03T19:06:32.486Z,30.00
2018-08-03T19:09:01.061Z,29.90
2018-08-03T19:11:29.990Z,29.80
2018-08-03T19:13:58.570Z,29.80
2018-08-03T19:16:27.158Z,29.70
2018-08-03T19:18:55.737Z,29.60
2018-08-03T19:21:24.373Z,29.50
2018-08-03T19:23:52.945Z,29.40
2018-08-03T19:26:21.549Z,29.20
2018-08-03T19:28:50.121Z,29.10
2018-08-03T19:31:18.668Z,29.10
2018-08-03T19:33:47.245Z,29.00
2018-08-03T19:36:15.807Z,28.90
2018-08-03T19:38:44.393Z,28.70
2018-08-03T19:41:13.029Z,28.70
2018-08-03T19:43:41.616Z,28.60
2018-08-03T19:46:10.156Z,28.40
2018-08-03T19:48:38.733Z,28.30
2018-08-03T19:51:07.455Z,28.20
2018-08-03T19:53:36.033Z,28.10
2018-08-03T19:56:04.705Z,28.00
2018-08-03T19:58:33.306Z,27.80
2018-08-03T20:01:01.887Z,27.80
2018-08-03T20:03:30.469Z,27.60
2018-08-03T20:05:59.245Z,27.60
2018-08-03T20:08:27.807Z,27.50
2018-08-03T20:10:56.395Z,27.50
2018-08-03T20:13:24.972Z,27.40
2018-08-03T20:15:53.537Z,27.30
2018-08-03T20:18:22.092Z,27.20
2018-08-03T20:20:50.664Z,27.10
2018-08-03T20:23:19.244Z,27.00
2018-08-03T20:25:47.830Z,26.90
2018-08-03T20:28:16.393Z,26.90
2018-08-03T20:30:44.993Z,26.80
2018-08-03T20:33:13.577Z,26.70
2018-08-03T20:35:42.160Z,26.80
2018-08-03T20:38:10.780Z,26.70
2018-08-03T20:40:39.400Z,26.80
2018-08-03T20:43:07.969Z,26.80
2018-08-03T20:45:36.617Z,26.80
2018-08-03T20:48:05.241Z,26.90
2018-08-03T20:50:34.464Z,26.90
2018-08-03T20:53:03.043Z,27.00
2018-08-03T20:55:31.675Z,27.00
2018-08-03T20:58:00.265Z,27.00
2018-08-03T21:00:28.868Z,27.00
2018-08-03T21:05:25.653Z,27.10
2018-08-03T21:07:54.225Z,27.10
2018-08-03T21:10:22.805Z,27.10
2018-08-03T21:12:51.385Z,27.00
2018-08-03T21:15:19.933Z,27.00
2018-08-03T21:20:16.733Z,27.00
2018-08-03T21:22:45.388Z,27.00
2018-08-03T21:25:13.941Z,27.00
2018-08-03T21:27:42.557Z,27.00
2018-08-03T21:30:11.716Z,26.90
2018-08-03T21:32:40.277Z,26.90
2018-08-03T21:35:08.874Z,26.90
2018-08-03T21:37:37.432Z,26.80
2018-08-03T21:40:06.120Z,26.70
2018-08-03T21:42:35.201Z,26.70
2018-08-03T21:45:04.341Z,26.60
2018-08-03T21:47:32.893Z,26.50
2018-08-03T21:50:01.470Z,26.50
2018-08-03T21:52:30.030Z,26.40
2018-08-03T21:54:58.708Z,26.30
2018-08-03T21:57:27.320Z,26.30
2018-08-03T21:59:55.965Z,26.20
2018-08-03T22:02:24.553Z,26.30
2018-08-03T22:04:53.145Z,26.30
2018-08-03T22:07:21.760Z,26.20
2018-08-03T22:09:52.321Z,26.20
2018-08-03T22:12:20.889Z,26.20
2018-08-03T22:14:49.502Z,26.20
2018-08-03T22:17:18.074Z,26.20
2018-08-03T22:19:46.645Z,26.20
2018-08-03T22:22:15.322Z,26.30
2018-08-03T22:24:43.895Z,26.30
2018-08-03T22:29:40.709Z,26.30
2018-08-03T22:32:09.393Z,26.30
2018-08-03T22:34:37.977Z,26.30
2018-08-03T22:39:34.882Z,26.30
2018-08-03T22:42:03.517Z,26.30
2018-08-03T22:44:32.092Z,26.30
2018-08-03T22:47:00.732Z,26.20
2018-08-03T22:49:29.294Z,26.20
2018-08-03T22:51:57.901Z,26.20
2018-08-03T22:54:26.530Z,26.10
2018-08-03T22:56:55.148Z,26.10
2018-08-03T22:59:23.754Z,26.10
2018-08-03T23:01:52.356Z,26.10
2018-08-03T23:04:20.988Z,26.00
2018-08-03T23:06:49.573Z,26.00
2018-08-03T23:09:18.180Z,25.90
2018-08-03T23:11:46.770Z,25.90
2018-08-03T23:14:15.353Z,25.90
2018-08-03T23:16:43.926Z,25.80
2018-08-03T23:19:12.508Z,25.80
2018-08-03T23:21:41.097Z,25.80
2018-08-03T23:24:09.677Z,25.80
2018-08-03T23:26:38.261Z,25.80
2018-08-03T23:29:06.866Z,25.70
2018-08-03T23:31:35.522Z,25.70
2018-08-03T23:34:04.122Z,25.70
2018-08-03T23:36:32.719Z,25.70
2018-08-03T23:39:01.285Z,25.70
2018-08-03T23:41:29.879Z,25.70
2018-08-03T23:43:58.457Z,25.70
2018-08-03T23:46:27.053Z,25.70
2018-08-03T23:48:55.638Z,25.70
2018-08-03T23:51:24.246Z,25.70
2018-08-03T23:53:52.841Z,25.70
2018-08-03T23:56:21.489Z,25.70
2018-08-03T23:58:50.361Z,25.70
